Time;durP1;ratioP1;P1;durP2;ratioP2;P2;SDS_P1;SDS_P2;PMS_P1;PMS_P2;Temp;Humidity;BMP_temperature;BMP_pressure;BME280_temperature;BME280_humidity;BME280_pressure;Samples;Min_cycle;Max_cycle;Signal;HPM_P1;HPM_P2
2022/03/01 00:01:39;;;;;;;13.90;9.32;;;1.20;99.90;;;;;;4992102;28;20053;-64
2022/03/01 00:04:05;;;;;;;16.63;9.82;;;1.20;99.90;;;;;;4979586;28;20053;-63
2022/03/01 00:06:30;;;;;;;15.68;9.60;;;1.20;99.90;;;;;;4993606;28;20046;-66
2022/03/01 00:08:56;;;;;;;16.33;9.65;;;1.10;99.90;;;;;;4996040;28;20414;-63
2022/03/01 00:11:22;;;;;;;16.10;9.82;;;1.10;99.90;;;;;;4993965;28;20450;-64
2022/03/01 00:13:48;;;;;;;14.73;10.20;;;1.10;99.90;;;;;;4994445;28;20054;-65
2022/03/01 00:16:14;;;;;;;15.77;9.77;;;1.10;99.90;;;;;;4994971;28;20069;-64
2022/03/01 00:18:39;;;;;;;14.98;10.05;;;1.10;99.90;;;;;;4995535;28;20046;-64
2022/03/01 00:21:05;;;;;;;15.43;10.13;;;1.00;99.90;;;;;;4996376;28;20045;-64
2022/03/01 00:23:32;;;;;;;13.88;9.68;;;1.00;99.90;;;;;;4993504;28;20050;-65
2022/03/01 00:25:58;;;;;;;15.05;10.27;;;1.00;99.90;;;;;;4994163;28;20066;-63
2022/03/01 00:28:23;;;;;;;16.67;10.52;;;1.00;99.90;;;;;;4989136;28;20430;-64
2022/03/01 00:30:49;;;;;;;14.68;9.88;;;0.90;99.90;;;;;;4993201;28;20046;-65
2022/03/01 00:33:15;;;;;;;15.55;10.23;;;0.90;99.90;;;;;;4993340;28;20061;-64
2022/03/01 00:35:41;;;;;;;16.83;11.32;;;0.90;99.90;;;;;;4994693;28;20046;-64
2022/03/01 00:38:07;;;;;;;13.88;10.15;;;0.90;99.90;;;;;;4994792;28;20446;-63
2022/03/01 00:40:32;;;;;;;16.52;10.23;;;0.90;99.90;;;;;;4994350;28;20042;-64
2022/03/01 00:42:58;;;;;;;18.23;9.98;;;0.80;99.90;;;;;;4993112;28;20122;-63
2022/03/01 00:45:24;;;;;;;16.85;10.70;;;0.80;99.90;;;;;;4994980;28;20468;-65
2022/03/01 00:47:49;;;;;;;16.30;11.02;;;0.80;99.90;;;;;;4992321;28;20518;-65
2022/03/01 00:50:15;;;;;;;15.65;9.98;;;0.70;99.90;;;;;;4994865;28;20227;-64
2022/03/01 00:52:41;;;;;;;15.90;10.40;;;0.70;99.90;;;;;;4974543;28;20475;-65
2022/03/01 00:55:07;;;;;;;16.60;10.10;;;0.70;99.90;;;;;;4994019;28;20046;-65
2022/03/01 00:57:33;;;;;;;14.68;9.73;;;0.70;99.90;;;;;;4994448;28;20062;-67
2022/03/01 00:59:59;;;;;;;16.02;10.32;;;0.70;99.90;;;;;;4993269;28;20054;-65
2022/03/01 01:02:24;;;;;;;14.45;10.27;;;0.90;99.90;;;;;;4994333;28;20051;-64
2022/03/01 01:04:50;;;;;;;13.65;9.45;;;0.60;99.90;;;;;;4992494;28;20050;-64
2022/03/01 01:07:15;;;;;;;17.05;10.23;;;0.60;99.90;;;;;;4994112;28;20475;-63
2022/03/01 01:09:41;;;;;;;17.98;10.38;;;0.60;99.90;;;;;;4993153;28;20046;-65
2022/03/01 01:12:07;;;;;;;16.55;10.20;;;0.60;99.90;;;;;;4992072;28;20467;-64
2022/03/01 01:14:32;;;;;;;15.65;10.65;;;0.60;99.90;;;;;;4994673;28;20479;-65
2022/03/01 01:16:58;;;;;;;15.15;10.23;;;0.50;99.90;;;;;;4993132;28;20138;-64
2022/03/01 01:19:24;;;;;;;15.63;9.98;;;0.30;99.90;;;;;;4994727;28;20046;-63
2022/03/01 01:24:33;;;;;;;14.00;10.25;;;0.50;99.90;;;;;;4995476;28;20046;-62
2022/03/01 01:26:59;;;;;;;17.30;11.00;;;0.50;99.90;;;;;;4994003;28;20398;-63
2022/03/01 01:29:24;;;;;;;15.88;10.18;;;0.40;99.90;;;;;;4992598;28;20038;-65
2022/03/01 01:31:50;;;;;;;17.45;10.70;;;0.70;99.90;;;;;;4993544;28;20065;-63
2022/03/01 01:34:15;;;;;;;15.70;10.95;;;0.50;99.90;;;;;;4993064;28;20050;-64
2022/03/01 01:36:41;;;;;;;16.50;10.45;;;0.40;99.90;;;;;;4992712;28;20057;-67
2022/03/01 01:39:07;;;;;;;15.25;10.35;;;0.50;99.90;;;;;;4990904;28;20057;-63
2022/03/01 01:41:32;;;;;;;17.80;10.55;;;0.40;99.90;;;;;;4992005;28;20130;-65
2022/03/01 01:44:07;;;;;;;17.83;11.45;;;0.40;99.90;;;;;;4992042;28;20122;-65
2022/03/01 01:46:33;;;;;;;16.90;10.57;;;0.40;99.90;;;;;;4976483;28;20049;-65
2022/03/01 01:48:59;;;;;;;15.27;10.50;;;0.40;99.90;;;;;;4992734;28;20057;-65
2022/03/01 01:51:25;;;;;;;16.67;10.25;;;0.40;99.90;;;;;;4992580;28;20046;-63
2022/03/01 01:53:52;;;;;;;15.65;9.98;;;0.40;99.90;;;;;;4990302;28;20107;-63
2022/03/01 01:56:18;;;;;;;16.25;10.25;;;0.40;99.90;;;;;;4992673;28;20066;-64
2022/03/01 01:58:44;;;;;;;15.52;10.20;;;0.40;99.90;;;;;;4992489;28;20050;-65
2022/03/01 02:01:09;;;;;;;16.13;10.15;;;0.40;99.90;;;;;;4990752;28;20513;-65
2022/03/01 02:03:35;;;;;;;16.52;10.77;;;0.10;99.90;;;;;;4987343;28;20054;-66
2022/03/01 02:06:02;;;;;;;18.73;10.40;;;0.40;99.90;;;;;;4993264;28;20054;-64
2022/03/01 02:08:29;;;;;;;15.77;10.88;;;0.40;99.90;;;;;;4990686;28;20048;-65
2022/03/01 02:10:55;;;;;;;15.82;11.05;;;0.30;99.90;;;;;;4992943;28;20096;-65
2022/03/01 02:13:21;;;;;;;21.35;11.80;;;0.30;99.90;;;;;;4988462;28;20058;-63
2022/03/01 02:15:47;;;;;;;15.50;10.52;;;0.30;99.90;;;;;;4992798;28;20078;-63
2022/03/01 02:18:13;;;;;;;16.63;11.05;;;0.30;99.90;;;;;;4989566;28;20061;-64
2022/03/01 02:20:39;;;;;;;17.27;11.52;;;0.60;99.90;;;;;;4994054;28;20061;-64
2022/03/01 02:23:05;;;;;;;15.00;10.38;;;0.30;99.90;;;;;;4992364;28;20137;-64
2022/03/01 02:25:30;;;;;;;15.55;10.82;;;0.40;99.90;;;;;;4986665;28;20050;-64
2022/03/01 02:27:56;;;;;;;17.23;10.90;;;0.30;99.90;;;;;;4992403;28;20546;-65
2022/03/01 02:30:21;;;;;;;16.88;11.32;;;0.30;99.90;;;;;;4992613;28;20111;-65
2022/03/01 02:32:48;;;;;;;17.42;11.48;;;0.30;99.90;;;;;;4992203;28;20056;-63
2022/03/01 02:35:15;;;;;;;15.55;11.02;;;0.30;99.90;;;;;;4987712;28;20475;-65
2022/03/01 02:37:41;;;;;;;14.25;10.27;;;0.30;99.90;;;;;;4990485;28;20089;-64
2022/03/01 02:40:08;;;;;;;16.02;11.88;;;0.30;99.90;;;;;;4974339;28;20132;-64
2022/03/01 02:42:35;;;;;;;17.20;10.98;;;0.30;99.90;;;;;;4992585;28;20618;-65
2022/03/01 02:45:01;;;;;;;16.92;10.35;;;0.30;99.90;;;;;;4993248;28;20050;-64
2022/03/01 02:47:26;;;;;;;17.55;10.25;;;0.30;99.90;;;;;;4991062;28;20166;-65
2022/03/01 02:49:53;;;;;;;15.90;10.88;;;0.20;99.90;;;;;;4990914;28;20534;-66
2022/03/01 02:52:19;;;;;;;17.38;11.50;;;0.20;99.90;;;;;;4990292;28;20097;-66
2022/03/01 02:54:45;;;;;;;16.30;10.80;;;0.30;99.90;;;;;;4991266;28;20397;-65
2022/03/01 02:57:10;;;;;;;17.15;11.60;;;0.20;99.90;;;;;;4992544;28;20391;-64
2022/03/01 02:59:36;;;;;;;17.70;11.10;;;0.20;99.90;;;;;;4990430;28;20070;-63
2022/03/01 03:02:02;;;;;;;20.08;10.45;;;0.30;99.90;;;;;;4992656;28;20379;-64
2022/03/01 03:04:27;;;;;;;15.70;11.10;;;0.20;99.90;;;;;;4991518;28;20477;-63
2022/03/01 03:06:53;;;;;;;15.98;10.80;;;0.20;99.90;;;;;;4992797;28;20046;-66
2022/03/01 03:09:21;;;;;;;16.80;11.35;;;0.10;99.90;;;;;;4989383;28;20506;-64
2022/03/01 03:11:47;;;;;;;17.30;11.80;;;0.20;99.90;;;;;;4992725;28;20050;-65
2022/03/01 03:14:12;;;;;;;17.83;11.63;;;0.20;99.90;;;;;;4990976;28;20038;-64
2022/03/01 03:16:38;;;;;;;15.38;10.70;;;0.20;99.90;;;;;;4992901;28;20101;-66
2022/03/01 03:19:03;;;;;;;17.40;10.70;;;0.10;99.90;;;;;;4990479;28;20046;-64
2022/03/01 03:21:29;;;;;;;15.20;11.20;;;0.10;99.90;;;;;;4992732;28;20473;-64
2022/03/01 03:23:55;;;;;;;18.25;10.98;;;0.10;99.90;;;;;;4991435;28;20521;-65
2022/03/01 03:26:20;;;;;;;19.45;11.23;;;0.00;99.90;;;;;;4989994;28;20073;-66
2022/03/01 03:28:46;;;;;;;17.63;10.70;;;0.10;99.90;;;;;;4991990;28;20042;-64
2022/03/01 03:31:12;;;;;;;17.02;11.73;;;0.00;99.90;;;;;;4991473;28;20186;-63
2022/03/01 03:33:38;;;;;;;19.10;11.18;;;0.00;99.90;;;;;;4991310;28;20077;-65
2022/03/01 03:36:05;;;;;;;18.52;11.68;;;0.00;99.90;;;;;;4991884;28;20129;-66
2022/03/01 03:38:30;;;;;;;16.88;11.00;;;0.00;99.90;;;;;;4990922;28;20463;-64
2022/03/01 03:40:56;;;;;;;17.15;10.90;;;0.30;99.90;;;;;;4990036;28;20108;-66
2022/03/01 03:43:22;;;;;;;16.10;10.68;;;0.00;99.90;;;;;;4991680;28;20046;-64
2022/03/01 03:45:48;;;;;;;16.83;10.80;;;0.00;99.90;;;;;;4991252;28;20058;-63
2022/03/01 03:48:14;;;;;;;19.58;12.25;;;0.00;99.90;;;;;;4990026;28;20101;-64
2022/03/01 03:50:39;;;;;;;16.20;11.38;;;0.00;99.90;;;;;;4990894;28;20057;-63
2022/03/01 03:53:05;;;;;;;17.08;11.35;;;0.10;99.90;;;;;;4986708;28;20050;-63
2022/03/01 03:55:31;;;;;;;24.55;12.85;;;0.10;99.90;;;;;;4992254;28;20100;-65
2022/03/01 03:57:56;;;;;;;21.55;11.93;;;0.10;99.90;;;;;;4989309;28;20058;-65
2022/03/01 04:00:22;;;;;;;17.88;10.65;;;0.10;99.90;;;;;;4989915;28;20391;-67
2022/03/01 04:02:51;;;;;;;18.17;12.10;;;0.10;99.90;;;;;;4974652;28;20141;-64
2022/03/01 04:05:17;;;;;;;18.40;11.52;;;0.10;99.90;;;;;;4982355;28;20065;-66
2022/03/01 04:07:44;;;;;;;20.55;12.55;;;0.10;99.90;;;;;;4991537;28;20479;-67
2022/03/01 04:10:11;;;;;;;18.27;10.95;;;0.10;99.90;;;;;;4990644;28;20062;-65
2022/03/01 04:12:37;;;;;;;17.70;12.05;;;0.10;99.90;;;;;;4991477;28;20376;-65
2022/03/01 04:15:04;;;;;;;17.95;11.30;;;0.10;99.90;;;;;;4990257;28;20080;-64
2022/03/01 04:17:30;;;;;;;17.30;11.50;;;0.10;99.90;;;;;;4993133;28;20168;-64
2022/03/01 04:19:56;;;;;;;18.45;11.50;;;0.40;99.90;;;;;;4989408;28;20078;-63
2022/03/01 04:22:22;;;;;;;18.10;12.35;;;0.20;99.90;;;;;;4991886;28;20080;-65
2022/03/01 04:24:47;;;;;;;20.30;11.85;;;0.20;99.90;;;;;;4991471;28;20085;-65
2022/03/01 04:27:13;;;;;;;18.92;11.18;;;0.20;99.90;;;;;;4990405;28;20089;-63
2022/03/01 04:29:39;;;;;;;23.13;12.85;;;0.20;99.90;;;;;;4990521;28;20390;-68
2022/03/01 04:32:05;;;;;;;18.05;11.77;;;0.20;99.90;;;;;;4984757;28;20125;-64
2022/03/01 04:34:31;;;;;;;17.17;12.00;;;0.20;99.90;;;;;;4989914;28;20090;-65
2022/03/01 04:36:56;;;;;;;17.92;11.02;;;0.20;99.90;;;;;;4995104;28;20502;-64
2022/03/01 04:39:22;;;;;;;18.67;11.63;;;0.20;99.90;;;;;;4994361;28;20051;-64
2022/03/01 04:41:48;;;;;;;18.02;12.18;;;0.20;99.90;;;;;;4992963;28;20050;-65
2022/03/01 04:44:14;;;;;;;17.08;12.38;;;0.20;99.90;;;;;;4994267;28;20125;-64
2022/03/01 04:46:40;;;;;;;16.40;11.73;;;0.20;99.90;;;;;;4995343;28;20066;-65
2022/03/01 04:49:06;;;;;;;18.35;11.40;;;0.20;99.90;;;;;;4993988;28;20061;-63
2022/03/01 04:51:32;;;;;;;17.77;12.35;;;0.20;99.90;;;;;;4993612;28;20062;-65
2022/03/01 04:53:58;;;;;;;17.45;11.60;;;0.20;99.90;;;;;;4992302;28;20387;-67
2022/03/01 04:56:24;;;;;;;18.65;11.93;;;0.10;99.90;;;;;;4994401;28;20054;-64
2022/03/01 04:58:51;;;;;;;18.42;11.50;;;0.20;99.90;;;;;;4977756;28;20050;-64
2022/03/01 05:01:17;;;;;;;19.63;11.63;;;0.20;99.90;;;;;;4994596;28;20058;-64
2022/03/01 05:03:42;;;;;;;16.17;11.63;;;0.20;99.90;;;;;;4993096;28;20054;-64
2022/03/01 05:06:08;;;;;;;19.08;12.38;;;0.20;99.90;;;;;;4992397;28;20065;-64
2022/03/01 05:08:33;;;;;;;18.70;11.90;;;0.20;99.90;;;;;;4993497;28;20053;-64
2022/03/01 05:11:00;;;;;;;17.27;12.57;;;0.20;99.90;;;;;;4993323;28;20057;-65
2022/03/01 05:13:26;;;;;;;19.15;12.27;;;0.30;99.90;;;;;;4992933;28;20398;-63
2022/03/01 05:15:52;;;;;;;18.83;11.48;;;0.30;99.90;;;;;;4995633;28;20491;-64
2022/03/01 05:18:18;;;;;;;17.65;11.82;;;0.30;99.90;;;;;;4992788;28;20081;-63
2022/03/01 05:20:43;;;;;;;19.13;12.48;;;0.40;99.90;;;;;;4991058;28;20038;-63
2022/03/01 05:23:09;;;;;;;18.08;11.43;;;0.40;99.90;;;;;;4994419;28;20050;-64
2022/03/01 05:25:35;;;;;;;18.42;12.27;;;0.40;99.90;;;;;;4993424;28;20125;-65
2022/03/01 05:28:00;;;;;;;17.95;11.07;;;0.50;99.90;;;;;;4994067;28;20086;-64
2022/03/01 05:30:26;;;;;;;18.58;11.95;;;0.40;99.90;;;;;;4991138;28;20518;-65
2022/03/01 05:32:54;;;;;;;15.50;11.00;;;0.40;99.90;;;;;;4994088;28;20116;-64
2022/03/01 05:35:22;;;;;;;19.05;11.55;;;0.40;99.90;;;;;;4993326;28;20097;-65
2022/03/01 05:37:49;;;;;;;22.20;11.55;;;0.50;99.90;;;;;;4994875;28;20491;-64
2022/03/01 05:40:16;;;;;;;16.70;10.65;;;0.50;99.90;;;;;;4976371;28;20062;-63
2022/03/01 05:42:43;;;;;;;17.60;11.13;;;0.50;99.90;;;;;;5007530;28;20378;-63
2022/03/01 05:45:11;;;;;;;20.70;12.27;;;0.50;99.90;;;;;;4992978;28;20034;-65
2022/03/01 05:47:36;;;;;;;17.15;10.68;;;0.50;99.90;;;;;;4992357;28;20378;-64
2022/03/01 05:50:03;;;;;;;20.33;12.02;;;0.60;99.90;;;;;;4989091;28;20140;-64
2022/03/01 05:52:29;;;;;;;18.88;11.73;;;0.60;99.90;;;;;;4994224;28;20393;-63
2022/03/01 05:54:55;;;;;;;18.00;12.52;;;0.60;99.90;;;;;;4994301;28;20488;-63
2022/03/01 05:57:24;;;;;;;18.70;12.23;;;0.60;99.90;;;;;;4990683;28;20101;-64
2022/03/01 05:59:49;;;;;;;17.15;11.75;;;0.60;99.90;;;;;;4993593;28;20054;-65
2022/03/01 06:02:15;;;;;;;18.83;11.77;;;0.60;99.90;;;;;;4991713;28;20071;-66
2022/03/01 06:04:41;;;;;;;17.55;12.05;;;0.60;99.90;;;;;;4980929;28;20474;-64
2022/03/01 06:07:06;;;;;;;15.80;11.32;;;0.60;99.90;;;;;;4992587;28;20714;-65
2022/03/01 06:09:32;;;;;;;22.40;12.98;;;0.50;99.90;;;;;;4993955;28;20049;-65
2022/03/01 06:11:57;;;;;;;21.83;13.90;;;0.50;99.90;;;;;;4991962;28;20054;-66
2022/03/01 06:14:23;;;;;;;18.77;13.07;;;0.50;99.90;;;;;;4993449;28;20057;-64
2022/03/01 06:16:48;;;;;;;17.83;12.13;;;0.50;99.90;;;;;;4991722;28;20050;-65
2022/03/01 06:19:14;;;;;;;18.58;12.40;;;0.40;99.90;;;;;;4993359;28;20085;-64
2022/03/01 06:21:39;;;;;;;20.42;12.88;;;0.50;99.90;;;;;;4992945;28;20169;-65
2022/03/01 06:24:05;;;;;;;19.70;12.50;;;0.50;99.90;;;;;;4990834;28;20076;-63
2022/03/01 06:26:32;;;;;;;21.20;12.63;;;0.50;99.90;;;;;;4992767;28;20137;-65
2022/03/01 06:28:58;;;;;;;21.17;12.48;;;0.50;99.90;;;;;;4992167;28;20064;-63
2022/03/01 06:31:23;;;;;;;19.80;12.05;;;0.50;99.90;;;;;;4990734;28;20137;-65
2022/03/01 06:33:51;;;;;;;19.10;12.77;;;0.50;99.90;;;;;;4987855;28;20050;-65
2022/03/01 06:36:17;;;;;;;26.35;13.25;;;1.50;99.90;;;;;;4989666;28;20046;-63
2022/03/01 06:38:42;;;;;;;19.30;11.38;;;0.60;99.90;;;;;;4989798;28;20042;-64
2022/03/01 06:41:08;;;;;;;20.10;12.52;;;0.60;99.90;;;;;;4991581;28;20077;-63
2022/03/01 06:43:34;;;;;;;20.13;13.68;;;0.60;99.90;;;;;;4991312;28;20054;-63
2022/03/01 06:45:59;;;;;;;16.40;11.10;;;0.60;99.90;;;;;;4989474;28;20058;-64
2022/03/01 06:48:25;;;;;;;17.70;11.73;;;0.70;99.90;;;;;;4992377;28;20132;-65
2022/03/01 06:50:51;;;;;;;18.33;12.23;;;0.70;99.90;;;;;;4983676;28;20464;-65
2022/03/01 06:53:17;;;;;;;20.27;13.15;;;0.70;99.90;;;;;;4985030;28;20399;-63
2022/03/01 06:55:44;;;;;;;21.75;12.82;;;0.80;99.90;;;;;;4983669;28;20046;-67
2022/03/01 06:58:11;;;;;;;20.83;13.10;;;0.80;99.90;;;;;;4980949;28;20047;-67
2022/03/01 07:00:37;;;;;;;19.38;12.27;;;0.90;99.90;;;;;;4988526;28;20085;-65
2022/03/01 07:03:04;;;;;;;20.63;12.82;;;0.90;99.90;;;;;;4987545;28;20456;-63
2022/03/01 07:05:30;;;;;;;19.45;12.45;;;1.00;99.90;;;;;;4981512;28;20141;-66
2022/03/01 07:07:56;;;;;;;19.50;12.60;;;1.00;99.90;;;;;;4981003;28;20110;-64
2022/03/01 07:10:22;;;;;;;21.75;13.00;;;1.00;99.90;;;;;;4989509;28;20050;-64
2022/03/01 07:12:48;;;;;;;19.80;13.02;;;1.10;99.90;;;;;;4972693;28;20480;-65
2022/03/01 07:15:14;;;;;;;21.50;13.13;;;1.20;99.90;;;;;;4986314;28;20057;-65
2022/03/01 07:17:39;;;;;;;19.85;12.70;;;1.20;99.90;;;;;;4989434;28;20062;-64
2022/03/01 07:20:07;;;;;;;18.17;11.60;;;1.30;99.90;;;;;;4990693;28;20073;-65
2022/03/01 07:22:33;;;;;;;20.33;13.32;;;1.40;99.90;;;;;;4991275;28;20050;-65
2022/03/01 07:24:59;;;;;;;21.98;12.88;;;1.50;99.90;;;;;;4992303;28;20054;-64
2022/03/01 07:27:25;;;;;;;19.77;12.35;;;1.60;99.90;;;;;;4991795;28;20485;-63
2022/03/01 07:29:51;;;;;;;17.42;11.85;;;1.70;99.90;;;;;;4992327;28;20047;-65
2022/03/01 07:32:16;;;;;;;22.77;13.63;;;1.70;99.90;;;;;;4992335;28;20366;-64
2022/03/01 07:34:42;;;;;;;19.05;13.25;;;1.90;99.90;;;;;;4989929;28;20127;-66
2022/03/01 07:37:09;;;;;;;22.17;13.23;;;1.90;99.90;;;;;;4992366;28;20050;-65
2022/03/01 07:39:34;;;;;;;20.73;12.95;;;2.00;99.90;;;;;;4993517;28;20391;-65
2022/03/01 07:42:00;;;;;;;18.50;12.98;;;2.10;99.90;;;;;;4992302;28;20050;-65
2022/03/01 07:44:26;;;;;;;22.42;13.13;;;2.20;99.90;;;;;;4992381;28;20057;-63
2022/03/01 07:46:51;;;;;;;19.42;12.38;;;2.40;99.90;;;;;;4990346;28;20054;-64
2022/03/01 07:49:17;;;;;;;21.13;13.38;;;2.40;99.90;;;;;;4992428;28;20133;-65
2022/03/01 07:51:43;;;;;;;19.63;12.35;;;2.50;99.90;;;;;;4991718;28;20092;-67
2022/03/01 07:54:09;;;;;;;19.65;13.15;;;2.60;99.90;;;;;;4991872;28;20483;-65
2022/03/01 07:56:34;;;;;;;19.42;12.65;;;2.70;99.90;;;;;;4992441;28;20101;-63
2022/03/01 07:59:00;;;;;;;19.65;12.48;;;2.70;99.90;;;;;;4991769;28;20121;-66
2022/03/01 08:01:26;;;;;;;18.77;12.18;;;2.80;99.90;;;;;;4982492;28;20538;-65
2022/03/01 08:03:51;;;;;;;20.25;12.48;;;2.80;99.90;;;;;;4982703;28;20050;-65
2022/03/01 08:06:17;;;;;;;21.00;13.30;;;2.90;99.90;;;;;;4985859;28;20050;-66
2022/03/01 08:08:43;;;;;;;19.88;12.90;;;3.00;99.90;;;;;;4988159;28;20084;-65
2022/03/01 08:11:09;;;;;;;17.98;12.63;;;3.00;99.90;;;;;;4993227;28;20131;-66
2022/03/01 08:13:35;;;;;;;19.05;11.63;;;3.10;99.90;;;;;;4995477;28;20130;-64
2022/03/01 08:16:03;;;;;;;17.27;12.30;;;3.10;99.90;;;;;;4996048;28;20104;-66
2022/03/01 08:18:28;;;;;;;18.25;12.00;;;3.20;99.90;;;;;;4990493;28;20352;-67
2022/03/01 08:20:54;;;;;;;18.90;12.27;;;3.20;99.90;;;;;;4990929;28;20046;-65
2022/03/01 08:23:20;;;;;;;18.23;12.15;;;3.20;99.90;;;;;;4988348;28;20061;-67
2022/03/01 08:25:45;;;;;;;18.85;12.27;;;3.30;99.90;;;;;;4982015;28;20174;-66
2022/03/01 08:28:12;;;;;;;16.83;11.60;;;3.40;99.90;;;;;;4985014;28;20133;-67
2022/03/01 08:30:38;;;;;;;16.80;12.80;;;3.40;99.90;;;;;;4984419;28;20055;-65
2022/03/01 08:33:04;;;;;;;16.63;11.65;;;3.50;99.90;;;;;;4992025;28;20357;-65
2022/03/01 08:35:32;;;;;;;18.77;11.90;;;3.50;99.90;;;;;;4976856;28;20050;-66
2022/03/01 08:38:07;;;;;;;17.65;13.13;;;3.60;99.90;;;;;;4990335;28;20082;-66
2022/03/01 08:40:37;;;;;;;17.48;11.85;;;3.60;99.90;;;;;;4996222;28;20046;-66
2022/03/01 08:43:04;;;;;;;17.55;12.45;;;3.70;99.90;;;;;;4993751;28;20467;-67
2022/03/01 08:45:30;;;;;;;18.58;12.07;;;3.90;99.90;;;;;;4995980;28;20427;-67
2022/03/01 08:47:56;;;;;;;18.75;12.25;;;3.90;99.90;;;;;;4996053;28;20061;-65
2022/03/01 08:50:21;;;;;;;19.35;12.13;;;4.00;99.90;;;;;;4994802;28;20042;-67
2022/03/01 08:52:48;;;;;;;16.20;11.93;;;4.00;99.90;;;;;;4995150;28;20044;-67
2022/03/01 08:55:14;;;;;;;16.55;12.80;;;4.20;99.90;;;;;;4995289;28;20042;-65
2022/03/01 08:57:39;;;;;;;17.50;11.90;;;4.30;99.90;;;;;;4994158;28;20050;-66
2022/03/01 09:00:08;;;;;;;17.52;11.98;;;4.40;99.90;;;;;;4994553;28;20046;-64
2022/03/01 09:02:33;;;;;;;18.63;12.95;;;4.50;99.90;;;;;;4993152;28;20049;-65
2022/03/01 09:04:59;;;;;;;18.90;14.05;;;4.50;99.90;;;;;;4989554;28;20047;-65
2022/03/01 09:07:25;;;;;;;17.08;12.27;;;4.60;99.90;;;;;;4989643;28;20073;-65
2022/03/01 09:09:51;;;;;;;18.35;14.18;;;4.70;99.90;;;;;;4984696;28;20157;-64
2022/03/01 09:12:17;;;;;;;18.95;12.43;;;4.80;99.90;;;;;;4968578;28;20049;-65
2022/03/01 09:14:42;;;;;;;18.83;14.25;;;4.90;99.90;;;;;;4994000;28;20046;-66
2022/03/01 09:17:08;;;;;;;19.90;13.65;;;5.00;99.90;;;;;;4993716;28;20061;-65
2022/03/01 09:19:34;;;;;;;20.50;13.63;;;5.10;99.90;;;;;;4996021;28;20058;-65
2022/03/01 09:21:59;;;;;;;20.05;13.60;;;5.10;99.90;;;;;;4994475;28;20402;-65
2022/03/01 09:24:25;;;;;;;17.88;13.18;;;5.30;99.90;;;;;;4994199;28;20129;-66
2022/03/01 09:26:50;;;;;;;20.80;14.07;;;5.30;99.90;;;;;;4988162;28;20054;-65
2022/03/01 09:29:16;;;;;;;19.92;13.60;;;5.50;99.90;;;;;;4975476;28;20470;-67
2022/03/01 09:31:42;;;;;;;18.88;13.57;;;5.50;99.90;;;;;;4989255;28;20064;-64
2022/03/01 09:34:07;;;;;;;19.45;13.30;;;5.60;99.90;;;;;;4995274;28;20064;-65
2022/03/01 09:36:33;;;;;;;19.13;12.95;;;5.70;99.90;;;;;;4994383;28;20050;-66
2022/03/01 09:38:59;;;;;;;20.27;13.85;;;5.80;99.90;;;;;;4993929;28;20390;-66
2022/03/01 09:41:25;;;;;;;17.58;13.75;;;5.90;99.90;;;;;;4995156;28;20086;-67
2022/03/01 09:43:54;;;;;;;19.33;13.73;;;6.00;99.90;;;;;;4994473;28;20493;-67
2022/03/01 09:46:19;;;;;;;16.63;13.27;;;6.00;99.90;;;;;;4993075;28;20507;-66
2022/03/01 09:48:45;;;;;;;21.02;13.95;;;6.20;99.90;;;;;;4993467;28;20122;-67
2022/03/01 09:51:11;;;;;;;18.20;14.20;;;6.20;99.90;;;;;;4994310;28;20407;-65
2022/03/01 09:53:41;;;;;;;17.40;13.48;;;6.30;99.90;;;;;;4993369;28;20057;-66
2022/03/01 09:56:09;;;;;;;17.20;13.13;;;6.30;99.90;;;;;;4988304;28;20042;-64
2022/03/01 09:58:35;;;;;;;17.48;13.43;;;6.40;99.90;;;;;;4983004;28;20378;-65
2022/03/01 10:01:01;;;;;;;19.98;13.98;;;6.50;99.90;;;;;;4993517;28;20054;-65
2022/03/01 10:03:28;;;;;;;20.05;14.25;;;6.50;99.90;;;;;;4987227;28;20113;-66
2022/03/01 10:06:12;;;;;;;18.00;13.70;;;6.40;99.90;;;;;;4986147;28;20054;-66
2022/03/01 10:08:38;;;;;;;19.73;13.55;;;6.50;99.90;;;;;;4993426;28;20483;-64
2022/03/01 10:11:04;;;;;;;19.42;13.43;;;6.50;99.90;;;;;;4993877;28;20391;-65
2022/03/01 10:13:32;;;;;;;20.80;13.60;;;6.50;99.90;;;;;;4985589;28;20049;-66
2022/03/01 10:16:07;;;;;;;18.15;13.68;;;6.50;99.90;;;;;;4984629;28;20053;-67
2022/03/01 10:18:35;;;;;;;17.27;13.52;;;6.60;99.90;;;;;;4989785;28;20449;-67
2022/03/01 10:21:09;;;;;;;17.08;13.35;;;6.60;99.90;;;;;;4993336;28;20053;-67
2022/03/01 10:23:36;;;;;;;20.20;14.38;;;6.70;99.90;;;;;;4992660;28;20053;-65
2022/03/01 10:26:13;;;;;;;19.13;13.43;;;6.70;99.90;;;;;;4993280;28;20046;-65
2022/03/01 10:28:39;;;;;;;20.73;14.20;;;6.90;99.90;;;;;;4993430;28;20050;-67
2022/03/01 10:31:13;;;;;;;19.15;14.15;;;7.00;99.90;;;;;;4987290;28;20332;-64
2022/03/01 10:33:40;;;;;;;18.05;13.20;;;7.20;99.90;;;;;;4983781;28;20391;-66
2022/03/01 10:36:06;;;;;;;19.60;13.38;;;7.30;99.90;;;;;;4989640;28;20050;-67
2022/03/01 10:38:32;;;;;;;17.17;12.75;;;7.40;99.90;;;;;;4994622;28;20383;-67
2022/03/01 10:41:00;;;;;;;19.55;14.20;;;7.50;99.90;;;;;;4992819;28;20054;-66
2022/03/01 10:43:28;;;;;;;19.40;13.73;;;7.60;99.90;;;;;;4992298;28;20085;-65
2022/03/01 10:45:53;;;;;;;19.75;14.27;;;7.60;99.90;;;;;;4991999;28;20070;-65
2022/03/01 10:48:37;;;;;;;18.35;13.05;;;7.70;99.90;;;;;;4993219;28;20061;-67
2022/03/01 10:51:05;;;;;;;17.83;13.70;;;7.90;99.90;;;;;;4988710;28;20441;-67
2022/03/01 10:53:35;;;;;;;18.73;13.73;;;8.00;99.90;;;;;;4993255;28;20117;-65
2022/03/01 10:56:09;;;;;;;19.02;12.80;;;8.10;99.90;;;;;;4992903;28;20416;-65
2022/03/01 10:58:36;;;;;;;16.90;13.55;;;8.40;99.90;;;;;;4992900;28;20058;-65
2022/03/01 11:01:04;;;;;;;17.15;12.43;;;8.50;99.90;;;;;;4992736;28;20077;-66
2022/03/01 11:03:32;;;;;;;17.40;13.52;;;8.60;99.90;;;;;;4987593;28;20371;-65
2022/03/01 11:05:59;;;;;;;17.23;13.10;;;8.80;99.90;;;;;;4983035;28;20046;-65
2022/03/01 11:08:36;;;;;;;17.30;12.85;;;8.90;99.90;;;;;;4980465;28;20069;-64
2022/03/01 11:11:04;;;;;;;17.08;12.85;;;9.00;87.90;;;;;;4975227;28;20074;-64
2022/03/01 11:13:33;;;;;;;18.08;14.05;;;9.00;92.50;;;;;;4987756;28;20126;-67
2022/03/01 11:16:32;;;;;;;18.63;13.15;;;9.10;96.40;;;;;;4992956;28;20355;-66
2022/03/01 11:19:25;;;;;;;21.27;13.35;;;9.10;81.30;;;;;;4992466;28;20062;-64
2022/03/01 11:21:52;;;;;;;18.42;13.05;;;9.10;81.00;;;;;;4990874;28;20054;-64
2022/03/01 11:24:21;;;;;;;16.77;13.10;;;9.20;96.90;;;;;;4992019;28;20061;-65
2022/03/01 11:26:47;;;;;;;16.95;13.43;;;9.30;97.30;;;;;;4992411;28;20478;-66
2022/03/01 11:29:14;;;;;;;17.98;13.43;;;9.30;94.80;;;;;;4992688;28;20054;-66
2022/03/01 11:31:42;;;;;;;16.58;13.07;;;9.30;92.80;;;;;;4993062;28;20125;-68
2022/03/01 11:34:14;;;;;;;16.83;13.40;;;9.20;85.90;;;;;;4992974;28;20054;-66
2022/03/01 11:36:56;;;;;;;17.73;13.25;;;9.20;92.30;;;;;;4991438;28;20479;-65
2022/03/01 11:39:31;;;;;;;16.77;12.75;;;9.20;85.60;;;;;;4973306;28;20650;-66
2022/03/01 11:42:05;;;;;;;18.10;12.57;;;9.30;81.80;;;;;;4991776;28;20076;-66
2022/03/01 11:44:33;;;;;;;19.00;12.70;;;9.40;88.80;;;;;;4993780;28;20050;-65
2022/03/01 11:47:02;;;;;;;25.17;17.73;;;9.40;89.60;;;;;;4996206;28;20042;-65
2022/03/01 11:49:34;;;;;;;24.73;17.48;;;9.40;81.20;;;;;;4997727;28;20446;-64
2022/03/01 11:52:00;;;;;;;18.67;14.63;;;9.50;82.20;;;;;;4996276;28;20042;-66
2022/03/01 11:54:31;;;;;;;19.88;15.57;;;9.70;85.30;;;;;;4997442;28;20046;-66
2022/03/01 11:56:58;;;;;;;20.08;15.15;;;9.80;80.00;;;;;;4995023;28;20125;-66
2022/03/01 11:59:26;;;;;;;19.63;15.05;;;10.00;78.20;;;;;;4995012;28;20122;-65
2022/03/01 12:01:52;;;;;;;20.15;12.80;;;10.00;76.50;;;;;;4996019;28;20050;-65
2022/03/01 12:04:21;;;;;;;19.77;14.32;;;10.20;74.30;;;;;;4980092;28;20038;-65
2022/03/01 12:06:52;;;;;;;16.45;12.55;;;10.20;72.30;;;;;;4995982;28;20537;-64
2022/03/01 12:09:18;;;;;;;18.70;13.50;;;10.30;74.10;;;;;;4997109;28;20049;-65
2022/03/01 12:11:45;;;;;;;17.42;13.07;;;10.20;72.80;;;;;;4996448;28;20054;-66
2022/03/01 12:14:19;;;;;;;33.55;20.30;;;10.30;73.70;;;;;;4979049;28;20097;-66
2022/03/01 12:16:46;;;;;;;19.40;14.02;;;10.30;74.00;;;;;;4995656;28;20054;-65
2022/03/01 12:19:15;;;;;;;18.70;13.48;;;10.20;73.10;;;;;;4995863;28;20086;-65
2022/03/01 12:21:50;;;;;;;20.15;14.32;;;10.20;73.50;;;;;;4997064;28;20111;-65
2022/03/01 12:24:18;;;;;;;17.83;13.93;;;10.10;73.50;;;;;;4995702;28;20046;-64
2022/03/01 12:26:56;;;;;;;16.77;13.73;;;10.10;72.70;;;;;;4995109;28;20050;-67
2022/03/01 12:29:24;;;;;;;19.25;14.13;;;10.10;71.50;;;;;;4995398;28;20132;-65
2022/03/01 12:32:03;;;;;;;18.30;13.70;;;10.10;73.80;;;;;;4995248;28;20061;-65
2022/03/01 12:34:31;;;;;;;18.98;14.20;;;10.20;75.00;;;;;;4994834;28;20042;-66
2022/03/01 12:37:26;;;;;;;18.40;13.57;;;10.30;75.60;;;;;;4995750;28;20113;-66